Concho — WDI7438 — position and weather

sailwx.info

Track history (hours):
 
Tides and Currents Weather Stations Pressure Air Temp Water Temp Dewpoint Dewpoint Depression Visibility Wind Speed Wind Dir Waves Ship Positions

Concho

Owner: Kirby Inland Marine LP, Houston, TX. More information available from US FCC via Universal Licensing System and Coast Guard Vessel Documentation Center.

Last reported at 2018-Apr-11 03:18 UTC. Time now 2018-Apr-24 14:32 UTC.
Position N 29°34' W 090°29'.
Warning: this ship's position is 13 days out of date.

Length 118 m; draft 2.9 m.

Type: . MMSI: 367728730.

Date/timePositionNaut miles runAvg speedWind from/ knotsBaromVisibWave heightAir tempDewpointWater temp
2018-Apr-11 03:18N 29°34' W 090°29'2 6.0
2018-Apr-11 03:00N 29°34' W 090°32'3 5.9
2018-Apr-11 02:30N 29°34' W 090°35'3 5.7
2018-Apr-11 02:01N 29°35' W 090°38'3 6.0
2018-Apr-11 01:31N 29°36' W 090°41'2 4.0
2018-Apr-11 01:00N 29°35' W 090°43'2 3.9
2018-Apr-11 00:31N 29°34' W 090°45'0 0.1
2018-Apr-11 00:01N 29°34' W 090°44'0 0.0
2018-Apr-10 23:31N 29°34' W 090°44'0 0.0
2018-Apr-10 23:01N 29°34' W 090°44'1 2.1
2018-Apr-10 22:28N 29°33' W 090°45'0 0.0
2018-Apr-10 22:01N 29°33' W 090°45'0 0.0
2018-Apr-10 21:27N 29°33' W 090°45'1 1.1
2018-Apr-10 21:00N 29°33' W 090°46'3 6.0
2018-Apr-10 20:30N 29°32' W 090°49'3 6.0
2018-Apr-10 19:55N 29°32' W 090°53'3 6.3
2018-Apr-10 19:29N 29°34' W 090°56'92 4.3
2018-Apr-09 22:04N 29°56' W 092°39'2 5.9
2018-Apr-09 21:43N 29°56' W 092°41'22 4.8
2018-Apr-09 17:03N 29°56' W 093°07'2 6.3
2018-Apr-09 16:48N 29°56' W 093°09'2 5.5
2018-Apr-09 16:31N 29°57' W 093°10'3 5.8
2018-Apr-09 16:00N 29°59' W 093°12'3 5.6
2018-Apr-09 15:31N 30°01' W 093°14'3 5.1
2018-Apr-09 15:01N 30°04' W 093°16'3 5.0
2018-Apr-09 14:30N 30°05' W 093°18'1 1.6
2018-Apr-09 14:01N 30°06' W 093°18'0 0.2
2018-Apr-09 13:30N 30°06' W 093°18'2 4.8
2018-Apr-09 13:00N 30°04' W 093°20'1 2.6
2018-Apr-09 12:30N 30°04' W 093°21'0 1.0
2018-Apr-09 12:00N 30°04' W 093°22'1 2.4
2018-Apr-09 11:30N 30°04' W 093°23'3 6.0
2018-Apr-09 11:00N 30°04' W 093°27'2 4.3
2018-Apr-09 10:29N 30°04' W 093°29'3 5.7
2018-Apr-09 10:01N 30°04' W 093°33'3 5.8
2018-Apr-09 09:30N 30°04' W 093°36'3 5.7
2018-Apr-09 09:00N 30°03' W 093°39'3 5.8
2018-Apr-09 08:30N 30°03' W 093°42'2 4.9
2018-Apr-09 08:00N 30°01' W 093°44'3 5.3
2018-Apr-09 07:31N 29°60' W 093°47'3 5.7
2018-Apr-09 07:01N 29°59' W 093°50'2 4.4
2018-Apr-09 06:31N 29°57' W 093°52'3 6.2
2018-Apr-09 06:01N 29°55' W 093°54'3 6.3
2018-Apr-09 05:31N 29°52' W 093°56'3 5.8
2018-Apr-09 05:00N 29°50' W 093°57'3 5.3
2018-Apr-09 04:31N 29°48' W 094°00'3 5.5
2018-Apr-09 04:01N 29°46' W 094°02'3 5.4
2018-Apr-09 03:31N 29°45' W 094°05'3 5.3
2018-Apr-09 03:01N 29°43' W 094°07'3 5.3
2018-Apr-09 02:30N 29°41' W 094°10'3 5.8
2018-Apr-09 02:01N 29°40' W 094°13'3 5.4
2018-Apr-09 01:30N 29°39' W 094°16'3 5.8
2018-Apr-09 01:00N 29°38' W 094°19'3 5.8
2018-Apr-09 00:30N 29°37' W 094°22'2 4.0
2018-Apr-09 00:00N 29°36' W 094°24'2 3.2
2018-Apr-08 23:22N 29°34' W 094°25'2 4.1
2018-Apr-08 22:57N 29°34' W 094°27'7 5.0
2018-Apr-08 21:38N 29°30' W 094°33'15 4.3
2018-Apr-08 18:08N 29°24' W 094°49'1 5.6
2018-Apr-08 17:57N 29°25' W 094°49'3 5.9
2018-Apr-08 17:30N 29°27' W 094°51'3 6.3
2018-Apr-08 17:01N 29°30' W 094°52'3 6.4
2018-Apr-08 16:31N 29°32' W 094°54'4 6.9
2018-Apr-08 16:00N 29°35' W 094°56'4 7.3
2018-Apr-08 15:31N 29°39' W 094°58'3 5.6
2018-Apr-08 15:00N 29°41' W 094°59'3 5.7
2018-Apr-08 14:30N 29°44' W 095°01'3 5.2
2018-Apr-08 14:01N 29°45' W 095°04'2 4.4
2018-Apr-08 13:30N 29°47' W 095°04'0 0.2
2018-Apr-08 13:00N 29°47' W 095°04'0 0.2
2018-Apr-08 12:30N 29°47' W 095°04'0 0.0
2018-Apr-08 12:00N 29°47' W 095°04'0 0.0
2018-Apr-08 11:30N 29°47' W 095°04'0 0.0
2018-Apr-08 11:00N 29°47' W 095°04'0 0.0
2018-Apr-08 10:30N 29°47' W 095°04'0 0.0
2018-Apr-08 10:00N 29°47' W 095°04'0 0.0
2018-Apr-08 09:26N 29°47' W 095°04'0 0.0
2018-Apr-08 09:01N 29°47' W 095°04'0 0.0
2018-Apr-08 08:30N 29°47' W 095°04'0 0.0
2018-Apr-08 08:00N 29°47' W 095°04'0 0.0
2018-Apr-08 07:30N 29°47' W 095°04'0 0.0
2018-Apr-08 07:00N 29°47' W 095°04'0 0.0
2018-Apr-08 06:30N 29°47' W 095°04'0 0.0
2018-Apr-08 05:59N 29°47' W 095°04'0 0.0
2018-Apr-08 05:30N 29°47' W 095°04'0 0.0
2018-Apr-08 05:00N 29°47' W 095°04'0 0.0
2018-Apr-08 04:30N 29°47' W 095°04'0 0.0
2018-Apr-08 04:00N 29°47' W 095°04'0 0.0
2018-Apr-08 03:30N 29°47' W 095°04'0 0.0
2018-Apr-08 03:00N 29°47' W 095°04'0 0.0
2018-Apr-08 02:30N 29°47' W 095°04'0 0.0
2018-Apr-08 02:00N 29°47' W 095°04'0 0.0
2018-Apr-08 01:31N 29°47' W 095°04'0 0.0
2018-Apr-08 01:01N 29°47' W 095°04'0 0.0
2018-Apr-08 00:28N 29°47' W 095°04'0 0.5
2018-Apr-07 23:54N 29°47' W 095°04'0 0.6
2018-Apr-07 23:28N 29°47' W 095°04'0 0.2
2018-Apr-07 23:00N 29°47' W 095°04'0 0.0
2018-Apr-07 22:31N 29°47' W 095°04'0 0.5
2018-Apr-07 22:00N 29°47' W 095°05'0 0.2
2018-Apr-07 21:30N 29°47' W 095°05'1 1.1
2018-Apr-07 20:59N 29°47' W 095°04'1 1.3
2018-Apr-07 20:04N 29°46' W 095°05'0 4.4
2018-Apr-07 20:01N 29°46' W 095°05'1 0.1
2018-Apr-07 00:26N 29°47' W 095°04'0 0.0
2018-Apr-06 23:59N 29°47' W 095°04'0 0.1
2018-Apr-06 23:29N 29°47' W 095°04'0 0.1
2018-Apr-06 22:55N 29°47' W 095°04'0 0.0
2018-Apr-06 22:30N 29°47' W 095°04'0 0.1
2018-Apr-06 21:56N 29°47' W 095°05'0 0.0
2018-Apr-06 21:30N 29°47' W 095°05'0 0.0
2018-Apr-06 21:00N 29°47' W 095°05'0 0.0
2018-Apr-06 20:30N 29°47' W 095°05'1 0.9
2018-Apr-06 19:58N 29°47' W 095°04'0 0.0
2018-Apr-06 18:50N 29°47' W 095°04'0 0.3
2018-Apr-06 18:01N 29°47' W 095°04'0 5.2
2018-Apr-06 18:00N 29°47' W 095°04'17 3.0
2018-Apr-06 12:14N 29°33' W 094°54'1 6.2
2018-Apr-06 12:00N 29°31' W 094°53'10 6.4
2018-Apr-06 10:29N 29°23' W 094°48'5 0.4
2018-Apr-05 22:03N 29°26' W 094°43'0 0.0
2018-Apr-05 22:00N 29°26' W 094°43'0 0.0
2018-Apr-05 21:30N 29°26' W 094°43'0 0.0
2018-Apr-05 21:00N 29°26' W 094°43'0 0.0
2018-Apr-05 20:27N 29°26' W 094°43'0 0.0
2018-Apr-05 20:00N 29°26' W 094°43'0 0.0
2018-Apr-05 19:30N 29°26' W 094°43'0 0.0
2018-Apr-05 19:00N 29°26' W 094°43'0 0.0
2018-Apr-05 18:30N 29°26' W 094°43'0 0.3
2018-Apr-05 17:40N 29°26' W 094°43'0 0.0
2018-Apr-05 17:25N 29°26' W 094°43'0 0.0
2018-Apr-05 16:58N 29°26' W 094°43'0 0.0
2018-Apr-05 16:28N 29°26' W 094°43'0 0.0
2018-Apr-05 15:59N 29°26' W 094°43'0 0.4
2018-Apr-05 15:29N 29°26' W 094°43'0 0.0
2018-Apr-05 14:56N 29°26' W 094°43'0 0.0
2018-Apr-05 14:29N 29°26' W 094°43'0 0.0
2018-Apr-05 13:53N 29°26' W 094°43'0 0.0
2018-Apr-05 13:29N 29°26' W 094°43'0 0.0
2018-Apr-05 12:50N 29°26' W 094°43'0 0.0
2018-Apr-05 12:29N 29°26' W 094°43'0 0.0
2018-Apr-05 11:59N 29°26' W 094°43'0 0.0
2018-Apr-05 11:29N 29°26' W 094°43'0 0.0
2018-Apr-05 10:44N 29°26' W 094°43'0 0.0
2018-Apr-05 10:29N 29°26' W 094°43'0 0.0
2018-Apr-05 09:56N 29°26' W 094°43'0 0.0
2018-Apr-05 09:29N 29°26' W 094°43'0 0.0
2018-Apr-05 08:56N 29°26' W 094°43'0 0.0
2018-Apr-05 08:29N 29°26' W 094°43'0 0.0
2018-Apr-05 07:59N 29°26' W 094°43'0 0.0
2018-Apr-05 07:26N 29°26' W 094°43'0 0.0
2018-Apr-05 06:59N 29°26' W 094°43'0 0.0
2018-Apr-05 06:29N 29°26' W 094°43'0 0.0
2018-Apr-05 05:53N 29°26' W 094°43'0 0.0
2018-Apr-05 05:26N 29°26' W 094°43'0 0.0
2018-Apr-05 04:59N 29°26' W 094°43'0 0.0
2018-Apr-05 04:26N 29°26' W 094°43'0 0.0
2018-Apr-05 03:59N 29°26' W 094°43'0 0.0
2018-Apr-05 03:08N 29°26' W 094°43'0 0.0
2018-Apr-05 02:59N 29°26' W 094°43'0 0.0
2018-Apr-05 02:14N 29°26' W 094°43'0 0.0
2018-Apr-05 01:29N 29°26' W 094°43'0 0.0
2018-Apr-05 00:47N 29°26' W 094°43'0 0.0
2018-Apr-05 00:23N 29°26' W 094°43'0 0.0
2018-Apr-04 23:59N 29°26' W 094°43'0 0.0
2018-Apr-04 23:23N 29°26' W 094°43'0 0.0
2018-Apr-04 22:59N 29°26' W 094°43'0 0.0
2018-Apr-04 22:29N 29°26' W 094°43'0 0.0
2018-Apr-04 21:59N 29°26' W 094°43'0 0.0
2018-Apr-04 21:29N 29°26' W 094°43'0 0.0
2018-Apr-04 20:59N 29°26' W 094°43'0 0.0
2018-Apr-04 20:29N 29°26' W 094°43'0 0.3
2018-Apr-04 19:59N 29°26' W 094°43'0 0.1
2018-Apr-04 19:26N 29°26' W 094°43'0 0.1
2018-Apr-04 18:56N 29°26' W 094°43'0 0.6
2018-Apr-04 18:24N 29°25' W 094°43'0 0.9
2018-Apr-04 17:59N 29°26' W 094°43'0 0.0
2018-Apr-04 17:26N 29°26' W 094°43'0 0.0
2018-Apr-04 16:56N 29°26' W 094°43'0 0.0
2018-Apr-04 16:26N 29°26' W 094°43'0 0.0
2018-Apr-04 15:53N 29°26' W 094°43'0 0.0
2018-Apr-04 15:29N 29°26' W 094°43'0 0.0
2018-Apr-04 14:59N 29°26' W 094°43'0 0.0
2018-Apr-04 14:29N 29°26' W 094°43'0 0.0
2018-Apr-04 13:56N 29°26' W 094°43'0 0.0
2018-Apr-04 13:29N 29°26' W 094°43'0 0.0
2018-Apr-04 12:41N 29°26' W 094°43'0 0.0
2018-Apr-04 12:05N 29°26' W 094°43'0 0.0
2018-Apr-04 11:52N 29°26' W 094°43'0 0.5
2018-Apr-04 11:28N 29°26' W 094°43'0 0.0
2018-Apr-04 10:55N 29°26' W 094°43'0 0.0
2018-Apr-04 10:28N 29°26' W 094°43'0 0.0
2018-Apr-04 09:55N 29°26' W 094°43'0 0.0
2018-Apr-04 09:28N 29°26' W 094°43'0 0.0
2018-Apr-04 08:58N 29°26' W 094°43'0 0.0
2018-Apr-04 08:28N 29°26' W 094°43'0 0.0
2018-Apr-04 07:58N 29°26' W 094°43'0 0.0
2018-Apr-04 07:28N 29°26' W 094°43'0 0.0
2018-Apr-04 06:58N 29°26' W 094°43'0 0.0
2018-Apr-04 06:04N 29°26' W 094°43'0 0.0
2018-Apr-04 05:58N 29°26' W 094°43'0 0.0
2018-Apr-04 05:19N 29°26' W 094°43'0 0.0
2018-Apr-04 04:58N 29°26' W 094°43'0 0.0
2018-Apr-04 04:25N 29°26' W 094°43'1 1.8
2018-Apr-04 03:55N 29°25' W 094°44'1 1.8
2018-Apr-04 03:26N 29°26' W 094°43'0 0.0
2018-Apr-04 02:59N 29°26' W 094°43'0 0.0
2018-Apr-04 02:29N 29°26' W 094°43'0 0.0
2018-Apr-04 01:59N 29°26' W 094°43'0 0.4
2018-Apr-04 01:25N 29°26' W 094°43'0 0.0
2018-Apr-04 00:58N 29°26' W 094°43'0 0.0
2018-Apr-04 00:31N 29°26' W 094°43'0 0.0
2018-Apr-04 00:01N 29°26' W 094°43'0 0.0
2018-Apr-03 23:28N 29°26' W 094°43'0 0.0
2018-Apr-03 22:57N 29°26' W 094°43'0 0.0
2018-Apr-03 22:28N 29°26' W 094°43'0 0.0
2018-Apr-03 21:58N 29°26' W 094°43'0 0.0
2018-Apr-03 21:30N 29°26' W 094°43'0 0.0
2018-Apr-03 20:58N 29°26' W 094°43'0 0.0
2018-Apr-03 20:28N 29°26' W 094°43'0 0.0
2018-Apr-03 19:57N 29°26' W 094°43'0 0.2
2018-Apr-03 19:30N 29°26' W 094°43'0 0.1
2018-Apr-03 18:57N 29°26' W 094°43'0 0.0
2018-Apr-03 15:06N 29°26' W 094°43'0 0.0
2018-Apr-03 14:48N 29°26' W 094°43'0 0.2
2018-Apr-03 13:48N 29°26' W 094°43'0 0.0
2018-Apr-03 13:21N 29°26' W 094°43'0 0.0
2018-Apr-03 08:42N 29°26' W 094°43'0 0.0
2018-Apr-03 08:24N 29°26' W 094°43'0 0.0
2018-Apr-03 07:48N 29°26' W 094°43'0 0.0
2018-Apr-03 07:27N 29°26' W 094°43'0 0.0
2018-Apr-03 06:54N 29°26' W 094°43'0 0.0
2018-Apr-03 06:30N 29°26' W 094°43'0 0.0
2018-Apr-03 05:39N 29°26' W 094°43'0 0.0
2018-Apr-03 05:24N 29°26' W 094°43'0 0.0
2018-Apr-03 05:00N 29°26' W 094°43'0 0.0
2018-Apr-03 04:27N 29°26' W 094°43'0 0.0
2018-Apr-03 03:54N 29°26' W 094°43'0 0.0
2018-Apr-03 03:30N 29°26' W 094°43'0 0.0
2018-Apr-03 03:00N 29°26' W 094°43'0 0.0
2018-Apr-03 02:30N 29°26' W 094°43'0 0.0
2018-Apr-03 01:57N 29°26' W 094°43'0 0.0
2018-Apr-03 01:09N 29°26' W 094°43'0 0.0
2018-Apr-03 00:57N 29°26' W 094°43'0 0.0
2018-Apr-03 00:30N 29°26' W 094°43'0 0.0
2018-Apr-03 00:00N 29°26' W 094°43'0 0.0
2018-Apr-02 23:27N 29°26' W 094°43'0 0.0
2018-Apr-02 22:57N 29°26' W 094°43'0 0.0
2018-Apr-02 22:27N 29°26' W 094°43'0 0.0
2018-Apr-02 22:00N 29°26' W 094°43'0 0.0
2018-Apr-02 21:30N 29°26' W 094°43'0 0.0
2018-Apr-02 20:51N 29°26' W 094°43'0 0.0
2018-Apr-02 20:30N 29°26' W 094°43'0 0.0
2018-Apr-02 19:54N 29°26' W 094°43'0 0.0
2018-Apr-02 19:30N 29°26' W 094°43'0 0.0
2018-Apr-02 19:00N 29°26' W 094°43'0 0.0
2018-Apr-02 18:30N 29°26' W 094°43'0 0.0
2018-Apr-02 18:00N 29°26' W 094°43'0 0.0
2018-Apr-02 17:27N 29°26' W 094°43'0 0.0
2018-Apr-02 16:51N 29°26' W 094°43'0 0.0
2018-Apr-02 16:30N 29°26' W 094°43'0 0.0
2018-Apr-02 15:48N 29°26' W 094°43'0 0.0
2018-Apr-02 15:30N 29°26' W 094°43'0 0.0
2018-Apr-02 14:51N 29°26' W 094°43'0 0.0
2018-Apr-02 14:30N 29°26' W 094°43'0 0.0
2018-Apr-02 13:36N 29°26' W 094°43'0 0.0
2018-Apr-02 12:17N 29°26' W 094°43'0 0.0
2018-Apr-02 09:50N 29°26' W 094°43'0 0.0
2018-Apr-02 09:29N 29°26' W 094°43'0 0.0
2018-Apr-02 08:56N 29°26' W 094°43'0 0.0
2018-Apr-02 08:23N 29°26' W 094°43'0 0.0
2018-Apr-02 07:56N 29°26' W 094°43'0 0.0
2018-Apr-02 07:29N 29°26' W 094°43'0 0.0
2018-Apr-02 06:53N 29°26' W 094°43'0 0.0
2018-Apr-02 06:29N 29°26' W 094°43'0 0.0
2018-Apr-02 05:53N 29°26' W 094°43'0 0.0
2018-Apr-02 05:29N 29°26' W 094°43'0 0.0
2018-Apr-02 04:59N 29°26' W 094°43'0 0.0
2018-Apr-02 04:26N 29°26' W 094°43'0 0.0
2018-Apr-02 03:56N 29°26' W 094°43'0 0.0
2018-Apr-02 03:23N 29°26' W 094°43'0 0.0
2018-Apr-02 02:59N 29°26' W 094°43'0 0.0
2018-Apr-02 02:26N 29°26' W 094°43'0 0.0
2018-Apr-02 01:59N 29°26' W 094°43'0 0.0
2018-Apr-02 01:26N 29°26' W 094°43'0 0.0
2018-Apr-02 00:53N 29°26' W 094°43'0 0.0
2018-Apr-02 00:26N 29°26' W 094°43'0 0.0
2018-Apr-01 23:59N 29°26' W 094°43'0 0.0
2018-Apr-01 23:31N 29°26' W 094°43'0 0.0
2018-Apr-01 23:00N 29°26' W 094°43'0 0.0
2018-Apr-01 22:25N 29°26' W 094°43'0 0.0
2018-Apr-01 22:00N 29°26' W 094°43'0 0.0
2018-Apr-01 21:29N 29°26' W 094°43'0 0.0
2018-Apr-01 20:58N 29°26' W 094°43'0 0.0
2018-Apr-01 20:28N 29°26' W 094°43'0 0.0
2018-Apr-01 19:51N 29°26' W 094°43'0 0.0
2018-Apr-01 19:25N 29°26' W 094°43'0 0.0
2018-Apr-01 18:52N 29°26' W 094°43'0 0.0
2018-Apr-01 17:33N 29°26' W 094°43'0 0.1
2018-Apr-01 17:30N 29°26' W 094°43'0 0.0
2018-Apr-01 16:58N 29°26' W 094°43'0 0.0
2018-Apr-01 16:26N 29°26' W 094°43'0 0.0
2018-Apr-01 15:51N 29°26' W 094°43'0 0.0
2018-Apr-01 15:30N 29°26' W 094°43'0 0.0
2018-Apr-01 15:00N 29°26' W 094°43'0 0.0
2018-Apr-01 14:30N 29°26' W 094°43'0 0.0
2018-Apr-01 13:57N 29°26' W 094°43'0 0.0
2018-Apr-01 13:29N 29°26' W 094°43'0 0.0
2018-Apr-01 13:00N 29°26' W 094°43'0 0.0
2018-Apr-01 12:27N 29°26' W 094°43'0 0.0
2018-Apr-01 12:00N 29°26' W 094°43'0 0.0
2018-Apr-01 11:23N 29°26' W 094°43'0 0.0
2018-Apr-01 10:59N 29°26' W 094°43'0 0.0
2018-Apr-01 10:30N 29°26' W 094°43'0 0.0
2018-Apr-01 09:57N 29°26' W 094°43'0 0.2
2018-Apr-01 09:30N 29°26' W 094°43'1 1.8
2018-Apr-01 08:58N 29°26' W 094°42'1 1.7
2018-Apr-01 08:21N 29°27' W 094°41'2 3.7
2018-Apr-01 07:45N 29°28' W 094°39'1 3.2
2018-Apr-01 07:27N 29°28' W 094°38'0 0.1
2018-Apr-01 06:57N 29°28' W 094°38'0 0.0
2018-Apr-01 06:28N 29°28' W 094°38'0 0.0
2018-Apr-01 05:57N 29°28' W 094°38'0 0.0
2018-Apr-01 05:30N 29°28' W 094°38'0 0.0
2018-Apr-01 04:57N 29°28' W 094°38'0 0.1
2018-Apr-01 04:28N 29°28' W 094°38'1 1.5
2018-Apr-01 03:55N 29°29' W 094°37'3 4.4
2018-Apr-01 03:19N 29°30' W 094°34'  
Track history (hours):
 
Tides and Currents Weather Stations Pressure Air Temp Water Temp Dewpoint Dewpoint Depression Visibility Wind Speed Wind Dir Waves Ship Positions

Concho

Owner: Kirby Inland Marine LP, Houston, TX. More information available from US FCC via Universal Licensing System and Coast Guard Vessel Documentation Center.

Last reported at 2018-Apr-11 03:18 UTC. Time now 2018-Apr-24 14:32 UTC.
Position N 29°34' W 090°29'.
Warning: this ship's position is 13 days out of date.

Length 118 m; draft 2.9 m.

Type: . MMSI: 367728730.

Date/timePositionNaut miles runAvg speedWind from/ knotsBaromVisibWave heightAir tempDewpointWater temp
2018-Apr-11 03:18N 29°34' W 090°29'2 6.0
2018-Apr-11 03:00N 29°34' W 090°32'3 5.9
2018-Apr-11 02:30N 29°34' W 090°35'3 5.7
2018-Apr-11 02:01N 29°35' W 090°38'3 6.0
2018-Apr-11 01:31N 29°36' W 090°41'2 4.0
2018-Apr-11 01:00N 29°35' W 090°43'2 3.9
2018-Apr-11 00:31N 29°34' W 090°45'0 0.1
2018-Apr-11 00:01N 29°34' W 090°44'0 0.0
2018-Apr-10 23:31N 29°34' W 090°44'0 0.0
2018-Apr-10 23:01N 29°34' W 090°44'1 2.1
2018-Apr-10 22:28N 29°33' W 090°45'0 0.0
2018-Apr-10 22:01N 29°33' W 090°45'0 0.0
2018-Apr-10 21:27N 29°33' W 090°45'1 1.1
2018-Apr-10 21:00N 29°33' W 090°46'3 6.0
2018-Apr-10 20:30N 29°32' W 090°49'3 6.0
2018-Apr-10 19:55N 29°32' W 090°53'3 6.3
2018-Apr-10 19:29N 29°34' W 090°56'92 4.3
2018-Apr-09 22:04N 29°56' W 092°39'2 5.9
2018-Apr-09 21:43N 29°56' W 092°41'22 4.8
2018-Apr-09 17:03N 29°56' W 093°07'2 6.3
2018-Apr-09 16:48N 29°56' W 093°09'2 5.5
2018-Apr-09 16:31N 29°57' W 093°10'3 5.8
2018-Apr-09 16:00N 29°59' W 093°12'3 5.6
2018-Apr-09 15:31N 30°01' W 093°14'3 5.1
2018-Apr-09 15:01N 30°04' W 093°16'3 5.0
2018-Apr-09 14:30N 30°05' W 093°18'1 1.6
2018-Apr-09 14:01N 30°06' W 093°18'0 0.2
2018-Apr-09 13:30N 30°06' W 093°18'2 4.8
2018-Apr-09 13:00N 30°04' W 093°20'1 2.6
2018-Apr-09 12:30N 30°04' W 093°21'0 1.0
2018-Apr-09 12:00N 30°04' W 093°22'1 2.4
2018-Apr-09 11:30N 30°04' W 093°23'3 6.0
2018-Apr-09 11:00N 30°04' W 093°27'2 4.3
2018-Apr-09 10:29N 30°04' W 093°29'3 5.7
2018-Apr-09 10:01N 30°04' W 093°33'3 5.8
2018-Apr-09 09:30N 30°04' W 093°36'3 5.7
2018-Apr-09 09:00N 30°03' W 093°39'3 5.8
2018-Apr-09 08:30N 30°03' W 093°42'2 4.9
2018-Apr-09 08:00N 30°01' W 093°44'3 5.3
2018-Apr-09 07:31N 29°60' W 093°47'3 5.7
2018-Apr-09 07:01N 29°59' W 093°50'2 4.4
2018-Apr-09 06:31N 29°57' W 093°52'3 6.2
2018-Apr-09 06:01N 29°55' W 093°54'3 6.3
2018-Apr-09 05:31N 29°52' W 093°56'3 5.8
2018-Apr-09 05:00N 29°50' W 093°57'3 5.3
2018-Apr-09 04:31N 29°48' W 094°00'3 5.5
2018-Apr-09 04:01N 29°46' W 094°02'3 5.4
2018-Apr-09 03:31N 29°45' W 094°05'3 5.3
2018-Apr-09 03:01N 29°43' W 094°07'3 5.3
2018-Apr-09 02:30N 29°41' W 094°10'3 5.8
2018-Apr-09 02:01N 29°40' W 094°13'3 5.4
2018-Apr-09 01:30N 29°39' W 094°16'3 5.8
2018-Apr-09 01:00N 29°38' W 094°19'3 5.8
2018-Apr-09 00:30N 29°37' W 094°22'2 4.0
2018-Apr-09 00:00N 29°36' W 094°24'2 3.2
2018-Apr-08 23:22N 29°34' W 094°25'2 4.1
2018-Apr-08 22:57N 29°34' W 094°27'7 5.0
2018-Apr-08 21:38N 29°30' W 094°33'15 4.3
2018-Apr-08 18:08N 29°24' W 094°49'1 5.6
2018-Apr-08 17:57N 29°25' W 094°49'3 5.9
2018-Apr-08 17:30N 29°27' W 094°51'3 6.3
2018-Apr-08 17:01N 29°30' W 094°52'3 6.4
2018-Apr-08 16:31N 29°32' W 094°54'4 6.9
2018-Apr-08 16:00N 29°35' W 094°56'4 7.3
2018-Apr-08 15:31N 29°39' W 094°58'3 5.6
2018-Apr-08 15:00N 29°41' W 094°59'3 5.7
2018-Apr-08 14:30N 29°44' W 095°01'3 5.2
2018-Apr-08 14:01N 29°45' W 095°04'2 4.4
2018-Apr-08 13:30N 29°47' W 095°04'0 0.2
2018-Apr-08 13:00N 29°47' W 095°04'0 0.2
2018-Apr-08 12:30N 29°47' W 095°04'0 0.0
2018-Apr-08 12:00N 29°47' W 095°04'0 0.0
2018-Apr-08 11:30N 29°47' W 095°04'0 0.0
2018-Apr-08 11:00N 29°47' W 095°04'0 0.0
2018-Apr-08 10:30N 29°47' W 095°04'0 0.0
2018-Apr-08 10:00N 29°47' W 095°04'0 0.0
2018-Apr-08 09:26N 29°47' W 095°04'0 0.0
2018-Apr-08 09:01N 29°47' W 095°04'0 0.0
2018-Apr-08 08:30N 29°47' W 095°04'0 0.0
2018-Apr-08 08:00N 29°47' W 095°04'0 0.0
2018-Apr-08 07:30N 29°47' W 095°04'0 0.0
2018-Apr-08 07:00N 29°47' W 095°04'0 0.0
2018-Apr-08 06:30N 29°47' W 095°04'0 0.0
2018-Apr-08 05:59N 29°47' W 095°04'0 0.0
2018-Apr-08 05:30N 29°47' W 095°04'0 0.0
2018-Apr-08 05:00N 29°47' W 095°04'0 0.0
2018-Apr-08 04:30N 29°47' W 095°04'0 0.0
2018-Apr-08 04:00N 29°47' W 095°04'0 0.0
2018-Apr-08 03:30N 29°47' W 095°04'0 0.0
2018-Apr-08 03:00N 29°47' W 095°04'0 0.0
2018-Apr-08 02:30N 29°47' W 095°04'0 0.0
2018-Apr-08 02:00N 29°47' W 095°04'0 0.0
2018-Apr-08 01:31N 29°47' W 095°04'0 0.0
2018-Apr-08 01:01N 29°47' W 095°04'0 0.0
2018-Apr-08 00:28N 29°47' W 095°04'0 0.5
2018-Apr-07 23:54N 29°47' W 095°04'0 0.6
2018-Apr-07 23:28N 29°47' W 095°04'0 0.2
2018-Apr-07 23:00N 29°47' W 095°04'0 0.0
2018-Apr-07 22:31N 29°47' W 095°04'0 0.5
2018-Apr-07 22:00N 29°47' W 095°05'0 0.2
2018-Apr-07 21:30N 29°47' W 095°05'1 1.1
2018-Apr-07 20:59N 29°47' W 095°04'1 1.3
2018-Apr-07 20:04N 29°46' W 095°05'0 4.4
2018-Apr-07 20:01N 29°46' W 095°05'1 0.1
2018-Apr-07 00:26N 29°47' W 095°04'0 0.0
2018-Apr-06 23:59N 29°47' W 095°04'0 0.1
2018-Apr-06 23:29N 29°47' W 095°04'0 0.1
2018-Apr-06 22:55N 29°47' W 095°04'0 0.0
2018-Apr-06 22:30N 29°47' W 095°04'0 0.1
2018-Apr-06 21:56N 29°47' W 095°05'0 0.0
2018-Apr-06 21:30N 29°47' W 095°05'0 0.0
2018-Apr-06 21:00N 29°47' W 095°05'0 0.0
2018-Apr-06 20:30N 29°47' W 095°05'1 0.9
2018-Apr-06 19:58N 29°47' W 095°04'0 0.0
2018-Apr-06 18:50N 29°47' W 095°04'0 0.3
2018-Apr-06 18:01N 29°47' W 095°04'0 5.2
2018-Apr-06 18:00N 29°47' W 095°04'17 3.0
2018-Apr-06 12:14N 29°33' W 094°54'1 6.2
2018-Apr-06 12:00N 29°31' W 094°53'10 6.4
2018-Apr-06 10:29N 29°23' W 094°48'5 0.4
2018-Apr-05 22:03N 29°26' W 094°43'0 0.0
2018-Apr-05 22:00N 29°26' W 094°43'0 0.0
2018-Apr-05 21:30N 29°26' W 094°43'0 0.0
2018-Apr-05 21:00N 29°26' W 094°43'0 0.0
2018-Apr-05 20:27N 29°26' W 094°43'0 0.0
2018-Apr-05 20:00N 29°26' W 094°43'0 0.0
2018-Apr-05 19:30N 29°26' W 094°43'0 0.0
2018-Apr-05 19:00N 29°26' W 094°43'0 0.0
2018-Apr-05 18:30N 29°26' W 094°43'0 0.3
2018-Apr-05 17:40N 29°26' W 094°43'0 0.0
2018-Apr-05 17:25N 29°26' W 094°43'0 0.0
2018-Apr-05 16:58N 29°26' W 094°43'0 0.0
2018-Apr-05 16:28N 29°26' W 094°43'0 0.0
2018-Apr-05 15:59N 29°26' W 094°43'0 0.4
2018-Apr-05 15:29N 29°26' W 094°43'0 0.0
2018-Apr-05 14:56N 29°26' W 094°43'0 0.0
2018-Apr-05 14:29N 29°26' W 094°43'0 0.0
2018-Apr-05 13:53N 29°26' W 094°43'0 0.0
2018-Apr-05 13:29N 29°26' W 094°43'0 0.0
2018-Apr-05 12:50N 29°26' W 094°43'0 0.0
2018-Apr-05 12:29N 29°26' W 094°43'0 0.0
2018-Apr-05 11:59N 29°26' W 094°43'0 0.0
2018-Apr-05 11:29N 29°26' W 094°43'0 0.0
2018-Apr-05 10:44N 29°26' W 094°43'0 0.0
2018-Apr-05 10:29N 29°26' W 094°43'0 0.0
2018-Apr-05 09:56N 29°26' W 094°43'0 0.0
2018-Apr-05 09:29N 29°26' W 094°43'0 0.0
2018-Apr-05 08:56N 29°26' W 094°43'0 0.0
2018-Apr-05 08:29N 29°26' W 094°43'0 0.0
2018-Apr-05 07:59N 29°26' W 094°43'0 0.0
2018-Apr-05 07:26N 29°26' W 094°43'0 0.0
2018-Apr-05 06:59N 29°26' W 094°43'0 0.0
2018-Apr-05 06:29N 29°26' W 094°43'0 0.0
2018-Apr-05 05:53N 29°26' W 094°43'0 0.0
2018-Apr-05 05:26N 29°26' W 094°43'0 0.0
2018-Apr-05 04:59N 29°26' W 094°43'0 0.0
2018-Apr-05 04:26N 29°26' W 094°43'0 0.0
2018-Apr-05 03:59N 29°26' W 094°43'0 0.0
2018-Apr-05 03:08N 29°26' W 094°43'0 0.0
2018-Apr-05 02:59N 29°26' W 094°43'0 0.0
2018-Apr-05 02:14N 29°26' W 094°43'0 0.0
2018-Apr-05 01:29N 29°26' W 094°43'0 0.0
2018-Apr-05 00:47N 29°26' W 094°43'0 0.0
2018-Apr-05 00:23N 29°26' W 094°43'0 0.0
2018-Apr-04 23:59N 29°26' W 094°43'0 0.0
2018-Apr-04 23:23N 29°26' W 094°43'0 0.0
2018-Apr-04 22:59N 29°26' W 094°43'0 0.0
2018-Apr-04 22:29N 29°26' W 094°43'0 0.0
2018-Apr-04 21:59N 29°26' W 094°43'0 0.0
2018-Apr-04 21:29N 29°26' W 094°43'0 0.0
2018-Apr-04 20:59N 29°26' W 094°43'0 0.0
2018-Apr-04 20:29N 29°26' W 094°43'0 0.3
2018-Apr-04 19:59N 29°26' W 094°43'0 0.1
2018-Apr-04 19:26N 29°26' W 094°43'0 0.1
2018-Apr-04 18:56N 29°26' W 094°43'0 0.6
2018-Apr-04 18:24N 29°25' W 094°43'0 0.9
2018-Apr-04 17:59N 29°26' W 094°43'0 0.0
2018-Apr-04 17:26N 29°26' W 094°43'0 0.0
2018-Apr-04 16:56N 29°26' W 094°43'0 0.0
2018-Apr-04 16:26N 29°26' W 094°43'0 0.0
2018-Apr-04 15:53N 29°26' W 094°43'0 0.0
2018-Apr-04 15:29N 29°26' W 094°43'0 0.0
2018-Apr-04 14:59N 29°26' W 094°43'0 0.0
2018-Apr-04 14:29N 29°26' W 094°43'0 0.0
2018-Apr-04 13:56N 29°26' W 094°43'0 0.0
2018-Apr-04 13:29N 29°26' W 094°43'0 0.0
2018-Apr-04 12:41N 29°26' W 094°43'0 0.0
2018-Apr-04 12:05N 29°26' W 094°43'0 0.0
2018-Apr-04 11:52N 29°26' W 094°43'0 0.5
2018-Apr-04 11:28N 29°26' W 094°43'0 0.0
2018-Apr-04 10:55N 29°26' W 094°43'0 0.0
2018-Apr-04 10:28N 29°26' W 094°43'0 0.0
2018-Apr-04 09:55N 29°26' W 094°43'0 0.0
2018-Apr-04 09:28N 29°26' W 094°43'0 0.0
2018-Apr-04 08:58N 29°26' W 094°43'0 0.0
2018-Apr-04 08:28N 29°26' W 094°43'0 0.0
2018-Apr-04 07:58N 29°26' W 094°43'0 0.0
2018-Apr-04 07:28N 29°26' W 094°43'0 0.0
2018-Apr-04 06:58N 29°26' W 094°43'0 0.0
2018-Apr-04 06:04N 29°26' W 094°43'0 0.0
2018-Apr-04 05:58N 29°26' W 094°43'0 0.0
2018-Apr-04 05:19N 29°26' W 094°43'0 0.0
2018-Apr-04 04:58N 29°26' W 094°43'0 0.0
2018-Apr-04 04:25N 29°26' W 094°43'1 1.8
2018-Apr-04 03:55N 29°25' W 094°44'1 1.8
2018-Apr-04 03:26N 29°26' W 094°43'0 0.0
2018-Apr-04 02:59N 29°26' W 094°43'0 0.0
2018-Apr-04 02:29N 29°26' W 094°43'0 0.0
2018-Apr-04 01:59N 29°26' W 094°43'0 0.4
2018-Apr-04 01:25N 29°26' W 094°43'0 0.0
2018-Apr-04 00:58N 29°26' W 094°43'0 0.0
2018-Apr-04 00:31N 29°26' W 094°43'0 0.0
2018-Apr-04 00:01N 29°26' W 094°43'0 0.0
2018-Apr-03 23:28N 29°26' W 094°43'0 0.0
2018-Apr-03 22:57N 29°26' W 094°43'0 0.0
2018-Apr-03 22:28N 29°26' W 094°43'0 0.0
2018-Apr-03 21:58N 29°26' W 094°43'0 0.0
2018-Apr-03 21:30N 29°26' W 094°43'0 0.0
2018-Apr-03 20:58N 29°26' W 094°43'0 0.0
2018-Apr-03 20:28N 29°26' W 094°43'0 0.0
2018-Apr-03 19:57N 29°26' W 094°43'0 0.2
2018-Apr-03 19:30N 29°26' W 094°43'0 0.1
2018-Apr-03 18:57N 29°26' W 094°43'0 0.0
2018-Apr-03 15:06N 29°26' W 094°43'0 0.0
2018-Apr-03 14:48N 29°26' W 094°43'0 0.2
2018-Apr-03 13:48N 29°26' W 094°43'0 0.0
2018-Apr-03 13:21N 29°26' W 094°43'0 0.0
2018-Apr-03 08:42N 29°26' W 094°43'0 0.0
2018-Apr-03 08:24N 29°26' W 094°43'0 0.0
2018-Apr-03 07:48N 29°26' W 094°43'0 0.0
2018-Apr-03 07:27N 29°26' W 094°43'0 0.0
2018-Apr-03 06:54N 29°26' W 094°43'0 0.0
2018-Apr-03 06:30N 29°26' W 094°43'0 0.0
2018-Apr-03 05:39N 29°26' W 094°43'0 0.0
2018-Apr-03 05:24N 29°26' W 094°43'0 0.0
2018-Apr-03 05:00N 29°26' W 094°43'0 0.0
2018-Apr-03 04:27N 29°26' W 094°43'0 0.0
2018-Apr-03 03:54N 29°26' W 094°43'0 0.0
2018-Apr-03 03:30N 29°26' W 094°43'0 0.0
2018-Apr-03 03:00N 29°26' W 094°43'0 0.0
2018-Apr-03 02:30N 29°26' W 094°43'0 0.0
2018-Apr-03 01:57N 29°26' W 094°43'0 0.0
2018-Apr-03 01:09N 29°26' W 094°43'0 0.0
2018-Apr-03 00:57N 29°26' W 094°43'0 0.0
2018-Apr-03 00:30N 29°26' W 094°43'0 0.0
2018-Apr-03 00:00N 29°26' W 094°43'0 0.0
2018-Apr-02 23:27N 29°26' W 094°43'0 0.0
2018-Apr-02 22:57N 29°26' W 094°43'0 0.0
2018-Apr-02 22:27N 29°26' W 094°43'0 0.0
2018-Apr-02 22:00N 29°26' W 094°43'0 0.0
2018-Apr-02 21:30N 29°26' W 094°43'0 0.0
2018-Apr-02 20:51N 29°26' W 094°43'0 0.0
2018-Apr-02 20:30N 29°26' W 094°43'0 0.0
2018-Apr-02 19:54N 29°26' W 094°43'0 0.0
2018-Apr-02 19:30N 29°26' W 094°43'0 0.0
2018-Apr-02 19:00N 29°26' W 094°43'0 0.0
2018-Apr-02 18:30N 29°26' W 094°43'0 0.0
2018-Apr-02 18:00N 29°26' W 094°43'0 0.0
2018-Apr-02 17:27N 29°26' W 094°43'0 0.0
2018-Apr-02 16:51N 29°26' W 094°43'0 0.0
2018-Apr-02 16:30N 29°26' W 094°43'0 0.0
2018-Apr-02 15:48N 29°26' W 094°43'0 0.0
2018-Apr-02 15:30N 29°26' W 094°43'0 0.0
2018-Apr-02 14:51N 29°26' W 094°43'0 0.0
2018-Apr-02 14:30N 29°26' W 094°43'0 0.0
2018-Apr-02 13:36N 29°26' W 094°43'0 0.0
2018-Apr-02 12:17N 29°26' W 094°43'0 0.0
2018-Apr-02 09:50N 29°26' W 094°43'0 0.0
2018-Apr-02 09:29N 29°26' W 094°43'0 0.0
2018-Apr-02 08:56N 29°26' W 094°43'0 0.0
2018-Apr-02 08:23N 29°26' W 094°43'0 0.0
2018-Apr-02 07:56N 29°26' W 094°43'0 0.0
2018-Apr-02 07:29N 29°26' W 094°43'0 0.0
2018-Apr-02 06:53N 29°26' W 094°43'0 0.0
2018-Apr-02 06:29N 29°26' W 094°43'0 0.0
2018-Apr-02 05:53N 29°26' W 094°43'0 0.0
2018-Apr-02 05:29N 29°26' W 094°43'0 0.0
2018-Apr-02 04:59N 29°26' W 094°43'0 0.0
2018-Apr-02 04:26N 29°26' W 094°43'0 0.0
2018-Apr-02 03:56N 29°26' W 094°43'0 0.0
2018-Apr-02 03:23N 29°26' W 094°43'0 0.0
2018-Apr-02 02:59N 29°26' W 094°43'0 0.0
2018-Apr-02 02:26N 29°26' W 094°43'0 0.0
2018-Apr-02 01:59N 29°26' W 094°43'0 0.0
2018-Apr-02 01:26N 29°26' W 094°43'0 0.0
2018-Apr-02 00:53N 29°26' W 094°43'0 0.0
2018-Apr-02 00:26N 29°26' W 094°43'0 0.0
2018-Apr-01 23:59N 29°26' W 094°43'0 0.0
2018-Apr-01 23:31N 29°26' W 094°43'0 0.0
2018-Apr-01 23:00N 29°26' W 094°43'0 0.0
2018-Apr-01 22:25N 29°26' W 094°43'0 0.0
2018-Apr-01 22:00N 29°26' W 094°43'0 0.0
2018-Apr-01 21:29N 29°26' W 094°43'0 0.0
2018-Apr-01 20:58N 29°26' W 094°43'0 0.0
2018-Apr-01 20:28N 29°26' W 094°43'0 0.0
2018-Apr-01 19:51N 29°26' W 094°43'0 0.0
2018-Apr-01 19:25N 29°26' W 094°43'0 0.0
2018-Apr-01 18:52N 29°26' W 094°43'0 0.0
2018-Apr-01 17:33N 29°26' W 094°43'0 0.1
2018-Apr-01 17:30N 29°26' W 094°43'0 0.0
2018-Apr-01 16:58N 29°26' W 094°43'0 0.0
2018-Apr-01 16:26N 29°26' W 094°43'0 0.0
2018-Apr-01 15:51N 29°26' W 094°43'0 0.0
2018-Apr-01 15:30N 29°26' W 094°43'0 0.0
2018-Apr-01 15:00N 29°26' W 094°43'0 0.0
2018-Apr-01 14:30N 29°26' W 094°43'0 0.0
2018-Apr-01 13:57N 29°26' W 094°43'0 0.0
2018-Apr-01 13:29N 29°26' W 094°43'0 0.0
2018-Apr-01 13:00N 29°26' W 094°43'0 0.0
2018-Apr-01 12:27N 29°26' W 094°43'0 0.0
2018-Apr-01 12:00N 29°26' W 094°43'0 0.0
2018-Apr-01 11:23N 29°26' W 094°43'0 0.0
2018-Apr-01 10:59N 29°26' W 094°43'0 0.0
2018-Apr-01 10:30N 29°26' W 094°43'0 0.0
2018-Apr-01 09:57N 29°26' W 094°43'0 0.2
2018-Apr-01 09:30N 29°26' W 094°43'1 1.8
2018-Apr-01 08:58N 29°26' W 094°42'1 1.7
2018-Apr-01 08:21N 29°27' W 094°41'2 3.7
2018-Apr-01 07:45N 29°28' W 094°39'1 3.2
2018-Apr-01 07:27N 29°28' W 094°38'0 0.1
2018-Apr-01 06:57N 29°28' W 094°38'0 0.0
2018-Apr-01 06:28N 29°28' W 094°38'0 0.0
2018-Apr-01 05:57N 29°28' W 094°38'0 0.0
2018-Apr-01 05:30N 29°28' W 094°38'0 0.0
2018-Apr-01 04:57N 29°28' W 094°38'0 0.1
2018-Apr-01 04:28N 29°28' W 094°38'1 1.5
2018-Apr-01 03:55N 29°29' W 094°37'3 4.4
2018-Apr-01 03:19N 29°30' W 094°34'  

Dump ship's entire track history